Time;durP1;ratioP1;P1;durP2;ratioP2;P2;SDS_P1;SDS_P2;PMS_P1;PMS_P2;Temp;Humidity;BMP_temperature;BMP_pressure;BME280_temperature;BME280_humidity;BME280_pressure;Samples;Min_cycle;Max_cycle;Signal;HPM_P1;HPM_P2
2022/04/30 00:02:25;;;;;;;;;;;;;;;20.75;41.32;101919.22;5122714;27;2928;-58
2022/04/30 00:04:52;;;;;;;;;;;;;;;20.74;41.31;101920.59;5124528;27;2616;-58
2022/04/30 00:07:19;;;;;;;;;;;;;;;20.74;41.37;101920.59;5119905;27;2628;-58
2022/04/30 00:09:51;;;;;;;;;;;;;;;20.72;41.40;101911.84;5121044;27;2506;-59
2022/04/30 00:12:18;;;;;;;;;;;;;;;20.72;41.36;101914.72;5119283;27;3343;-58
2022/04/30 00:14:44;;;;;;;;;;;;;;;20.71;41.10;101924.75;5126440;27;2406;-59
2022/04/30 00:17:12;;;;;;;;;;;;;;;20.71;41.42;101921.88;5116397;27;3299;-59
2022/04/30 00:19:38;;;;;;;;;;;;;;;20.70;41.41;101908.84;5118139;27;2536;-58
2022/04/30 00:22:05;;;;;;;;;;;;;;;20.70;41.46;101908.84;5124112;27;2601;-58
2022/04/30 00:24:31;;;;;;;;;;;;;;;20.70;41.48;101905.97;5121863;27;2556;-59
2022/04/30 00:26:59;;;;;;;;;;;;;;;20.69;41.45;101910.22;5120894;27;2138;-57
2022/04/30 00:29:26;;;;;;;;;;;;;;;20.68;41.43;101900.06;5110478;27;2599;-59
2022/04/30 00:31:53;;;;;;;;;;;;;;;20.67;41.39;101910.84;5120499;27;2877;-58
2022/04/30 00:34:19;;;;;;;;;;;;;;;20.68;41.43;101905.81;5103424;27;2595;-58
2022/04/30 00:36:46;;;;;;;;;;;;;;;20.67;41.37;101904.34;5122581;27;2557;-58
2022/04/30 00:39:12;;;;;;;;;;;;;;;20.68;41.40;101906.59;5119695;27;2621;-58
2022/04/30 00:41:42;;;;;;;;;;;;;;;20.67;41.47;101904.34;5122037;27;2369;-58
2022/04/30 00:44:09;;;;;;;;;;;;;;;20.65;41.33;101909.97;5125939;27;2601;-59
2022/04/30 00:46:35;;;;;;;;;;;;;;;20.65;41.35;101898.47;5119826;27;2640;-58
2022/04/30 00:49:02;;;;;;;;;;;;;;;20.65;41.37;101895.56;5122240;27;2467;-58
2022/04/30 00:51:28;;;;;;;;;;;;;;;20.65;41.44;101904.22;5125455;27;2591;-59
2022/04/30 00:53:55;;;;;;;;;;;;;;;20.64;41.45;101909.22;5120550;27;2665;-58
2022/04/30 00:56:22;;;;;;;;;;;;;;;20.64;41.47;101899.84;5120471;27;3383;-58
2022/04/30 00:58:48;;;;;;;;;;;;;;;20.63;41.47;101893.31;5115845;27;2441;-57
2022/04/30 01:01:15;;;;;;;;;;;;;;;20.63;41.48;101892.56;5106663;27;2532;-59
2022/04/30 01:04:18;;;;;;;;;;;;;;;20.62;41.36;101897.59;5123077;27;2474;-59
2022/04/30 01:06:58;;;;;;;;;;;;;;;20.62;41.40;101893.97;5118299;27;2639;-58
2022/04/30 01:09:25;;;;;;;;;;;;;;;20.61;41.38;101887.44;5125890;27;2732;-57
2022/04/30 01:11:55;;;;;;;;;;;;;;;20.62;41.46;101891.09;5118646;27;2597;-58
2022/04/30 01:14:22;;;;;;;;;;;;;;;20.62;41.47;101885.34;5122227;27;2736;-58
2022/04/30 01:16:49;;;;;;;;;;;;;;;20.62;41.39;101879.56;5120079;27;2663;-58
2022/04/30 01:19:19;;;;;;;;;;;;;;;20.64;41.45;101888.34;5121171;27;2347;-58
2022/04/30 01:22:08;;;;;;;;;;;;;;;20.64;41.36;101885.47;5106753;27;2601;-58
2022/04/30 01:24:35;;;;;;;;;;;;;;;20.64;41.29;101882.56;5116566;27;2567;-57
2022/04/30 01:27:01;;;;;;;;;;;;;;;20.63;41.35;101881.81;5119731;27;2600;-56
2022/04/30 01:29:30;;;;;;;;;;;;;;;20.64;41.28;101894.09;5099772;27;2455;-57
2022/04/30 01:37:27;;;;;;;;;;;;;;;20.65;41.24;101892.69;5120166;27;2585;-58
2022/04/30 01:39:57;;;;;;;;;;;;;;;20.64;41.30;101886.19;5117612;27;2650;-58
2022/04/30 01:42:24;;;;;;;;;;;;;;;20.65;41.32;101884.06;5121933;28;2625;-57
2022/04/30 01:44:50;;;;;;;;;;;;;;;20.65;41.21;101884.06;5123238;28;2429;-57
2022/04/30 01:47:17;;;;;;;;;;;;;;;20.65;41.28;101884.06;5119695;28;2622;-58
2022/04/30 01:49:44;;;;;;;;;;;;;;;20.64;41.24;101880.44;5125203;28;2320;-58
2022/04/30 01:52:13;;;;;;;;;;;;;;;20.64;41.27;101888.34;5123360;28;3250;-57
2022/04/30 01:54:40;;;;;;;;;;;;;;;20.63;41.34;101883.94;5104857;28;2756;-58
2022/04/30 01:57:06;;;;;;;;;;;;;;;20.62;41.33;101879.56;5123551;28;2536;-58
2022/04/30 01:59:33;;;;;;;;;;;;;;;20.61;41.32;101883.81;5114044;28;2788;-56
2022/04/30 02:01:59;;;;;;;;;;;;;;;20.62;41.30;101885.34;5127185;28;1991;-57
2022/04/30 02:04:26;;;;;;;;;;;;;;;20.61;41.30;101880.94;5124076;28;2592;-58
2022/04/30 02:06:52;;;;;;;;;;;;;;;20.61;41.28;101880.94;5123103;28;2910;-57
2022/04/30 02:09:27;;;;;;;;;;;;;;;20.59;41.30;101875.06;5120891;28;2785;-58
2022/04/30 02:11:55;;;;;;;;;;;;;;;20.58;41.33;101874.31;5119946;27;2724;-58
2022/04/30 02:14:21;;;;;;;;;;;;;;;20.58;41.26;101880.06;5105669;27;2528;-58
2022/04/30 02:16:48;;;;;;;;;;;;;;;20.58;41.38;101879.31;5128034;27;2876;-58
2022/04/30 02:19:14;;;;;;;;;;;;;;;20.57;41.35;101881.44;5102866;27;2775;-58
2022/04/30 02:21:40;;;;;;;;;;;;;;;20.56;41.31;101874.19;5126879;27;2671;-58
2022/04/30 02:24:07;;;;;;;;;;;;;;;20.56;41.34;101871.31;5121087;27;2486;-58
2022/04/30 02:26:33;;;;;;;;;;;;;;;20.55;41.31;101858.28;5128697;27;2521;-58
2022/04/30 02:29:01;;;;;;;;;;;;;;;20.55;41.46;101863.25;5122817;27;2609;-58
2022/04/30 02:31:27;;;;;;;;;;;;;;;20.54;41.35;101856.00;5124437;27;2566;-57
2022/04/30 02:33:57;;;;;;;;;;;;;;;20.53;41.33;101855.28;5128308;27;1847;-58
2022/04/30 02:36:27;;;;;;;;;;;;;;;20.54;41.42;101850.25;5125194;27;2188;-57
2022/04/30 02:38:54;;;;;;;;;;;;;;;20.53;41.36;101843.75;5119213;27;2628;-58
2022/04/30 02:41:21;;;;;;;;;;;;;;;20.56;41.30;101842.53;5128097;27;2266;-58
2022/04/30 02:43:49;;;;;;;;;;;;;;;20.57;41.26;101843.25;5121867;27;2434;-58
2022/04/30 02:46:15;;;;;;;;;;;;;;;20.58;41.19;101839.03;5126660;27;2634;-58
2022/04/30 02:48:42;;;;;;;;;;;;;;;20.59;41.43;101841.28;5117222;27;2506;-58
2022/04/30 02:51:10;;;;;;;;;;;;;;;20.60;41.14;101837.03;5127293;27;2323;-58
2022/04/30 02:53:37;;;;;;;;;;;;;;;20.61;41.30;101838.50;5124748;27;2627;-58
2022/04/30 02:56:04;;;;;;;;;;;;;;;20.61;41.38;101840.63;5126138;27;2380;-58
2022/04/30 03:01:15;;;;;;;;;;;;;;;20.62;41.43;101839.28;5124242;27;2490;-58
2022/04/30 03:03:52;;;;;;;;;;;;;;;20.61;41.24;101832.75;5114260;27;2640;-57
2022/04/30 03:06:19;;;;;;;;;;;;;;;20.62;41.35;101833.53;5124085;27;2408;-58
2022/04/30 03:08:47;;;;;;;;;;;;;;;20.62;41.34;101834.28;5122806;27;2600;-58
2022/04/30 03:11:13;;;;;;;;;;;;;;;20.63;41.59;101835.00;5124842;27;2495;-58
2022/04/30 03:13:39;;;;;;;;;;;;;;;20.64;41.42;101830.78;5127216;27;2525;-57
2022/04/30 03:21:42;;;;;;;;;;;;;;;20.67;41.80;101823.75;5125976;27;2441;-58
2022/04/30 03:24:09;;;;;;;;;;;;;;;20.69;41.69;101821.75;5119635;27;2664;-56
2022/04/30 03:26:36;;;;;;;;;;;;;;;20.67;41.76;101812.25;5125055;27;2579;-58
2022/04/30 03:29:03;;;;;;;;;;;;;;;20.66;41.84;101816.47;5122592;27;2521;-57
2022/04/30 03:31:33;;;;;;;;;;;;;;;20.68;41.65;101813.72;5119214;27;2691;-58
2022/04/30 03:33:59;;;;;;;;;;;;;;;20.67;41.73;101815.13;5125583;27;2319;-58
2022/04/30 03:36:26;;;;;;;;;;;;;;;20.66;41.79;101810.72;5123958;27;2612;-57
2022/04/30 03:38:53;;;;;;;;;;;;;;;20.67;41.76;101823.75;5119442;27;2600;-58
2022/04/30 03:41:19;;;;;;;;;;;;;;;20.66;41.68;101804.97;5123757;27;2666;-58
2022/04/30 03:43:45;;;;;;;;;;;;;;;20.67;41.75;101815.13;5126053;27;2563;-58
2022/04/30 03:46:12;;;;;;;;;;;;;;;20.70;41.71;101805.22;5121028;27;2611;-58
2022/04/30 03:48:38;;;;;;;;;;;;;;;20.72;41.85;101813.97;5123369;27;2387;-58
2022/04/30 03:51:05;;;;;;;;;;;;;;;20.74;41.80;101816.25;5125200;27;2747;-58
2022/04/30 03:53:32;;;;;;;;;;;;;;;20.75;41.72;101812.72;5122541;27;2726;-58
2022/04/30 03:56:00;;;;;;;;;;;;;;;20.74;41.88;101811.22;5126077;27;2287;-58
2022/04/30 03:58:27;;;;;;;;;;;;;;;20.73;41.81;101824.13;5126863;27;1928;-57
2022/04/30 04:00:54;;;;;;;;;;;;;;;20.75;42.00;101821.34;5120260;27;2579;-58
2022/04/30 04:03:20;;;;;;;;;;;;;;;20.75;41.94;101824.22;5126436;27;2363;-57
2022/04/30 04:05:51;;;;;;;;;;;;;;;20.75;41.89;101824.22;5126147;27;2506;-58
2022/04/30 04:08:17;;;;;;;;;;;;;;;20.73;41.86;101811.84;5122574;27;2576;-58
2022/04/30 04:10:43;;;;;;;;;;;;;;;20.71;41.86;101807.47;5121585;27;2624;-58
2022/04/30 04:18:40;;;;;;;;;;;;;;;20.76;41.69;101825.75;5121104;27;2513;-58
2022/04/30 04:21:08;;;;;;;;;;;;;;;20.81;41.71;101818.84;5119619;27;2505;-58
2022/04/30 04:26:20;;;;;;;;;;;;;;;20.82;41.72;101823.25;5124940;27;2895;-56
2022/04/30 04:28:46;;;;;;;;;;;;;;;20.82;41.74;101826.13;5123623;27;2482;-58
2022/04/30 04:31:13;;;;;;;;;;;;;;;20.84;41.83;101825.47;5123819;27;2553;-58
2022/04/30 04:33:39;;;;;;;;;;;;;;;20.86;41.78;101822.72;5111159;27;2786;-58
2022/04/30 04:36:06;;;;;;;;;;;;;;;20.93;41.67;101824.56;5120688;27;2659;-58
2022/04/30 04:38:32;;;;;;;;;;;;;;;20.85;41.71;101821.22;5124558;27;2548;-58
2022/04/30 04:40:58;;;;;;;;;;;;;;;20.84;41.69;101823.34;5116014;27;2274;-58
2022/04/30 04:43:25;;;;;;;;;;;;;;;20.86;41.68;101828.47;5126467;27;2693;-58
2022/04/30 04:45:51;;;;;;;;;;;;;;;20.85;41.67;101826.97;5116457;27;2614;-58
2022/04/30 04:48:17;;;;;;;;;;;;;;;20.86;41.63;101834.97;5122683;27;2529;-57
2022/04/30 04:50:46;;;;;;;;;;;;;;;20.87;41.56;101839.38;5123528;27;2363;-58
2022/04/30 04:53:13;;;;;;;;;;;;;;;20.90;41.64;101840.97;5123728;27;2667;-58
2022/04/30 04:55:39;;;;;;;;;;;;;;;20.91;41.52;101848.25;5124185;27;2626;-58
2022/04/30 04:58:06;;;;;;;;;;;;;;;20.92;41.64;101846.13;5104334;27;2326;-59
2022/04/30 05:00:33;;;;;;;;;;;;;;;20.97;41.63;101844.22;5121421;27;2633;-58
2022/04/30 05:03:00;;;;;;;;;;;;;;;20.91;41.64;101841.72;5118904;27;2705;-58
2022/04/30 05:05:26;;;;;;;;;;;;;;;20.92;41.54;101849.75;5122551;27;2601;-57
2022/04/30 05:07:53;;;;;;;;;;;;;;;20.93;41.65;101844.72;5122975;27;2553;-58
2022/04/30 05:10:19;;;;;;;;;;;;;;;20.93;41.59;101842.59;5124009;27;2664;-58
2022/04/30 05:12:46;;;;;;;;;;;;;;;20.91;41.61;101854.00;5117954;27;2747;-58
2022/04/30 05:15:13;;;;;;;;;;;;;;;21.02;41.53;101857.47;5117539;27;2673;-58
2022/04/30 05:17:39;;;;;;;;;;;;;;;21.06;41.32;101854.84;5118481;27;2526;-57
2022/04/30 05:20:05;;;;;;;;;;;;;;;20.97;41.56;101852.88;5123754;27;2887;-58
2022/04/30 05:22:52;;;;;;;;;;;;;;;20.92;41.74;101855.50;5123527;27;2326;-58
2022/04/30 05:25:18;;;;;;;;;;;;;;;20.90;41.56;101858.25;5123315;27;2607;-58
2022/04/30 05:27:45;;;;;;;;;;;;;;;20.92;41.84;101861.25;5120618;27;2616;-57
2022/04/30 05:30:11;;;;;;;;;;;;;;;20.93;41.68;101856.25;5120801;27;2710;-58
2022/04/30 05:32:38;;;;;;;;;;;;;;;20.94;41.71;101857.75;5120677;27;2616;-58
2022/04/30 05:35:04;;;;;;;;;;;;;;;20.95;41.70;101859.25;5121575;27;2661;-58
2022/04/30 05:37:31;;;;;;;;;;;;;;;20.91;41.77;101859.00;5116880;27;2529;-57
2022/04/30 05:39:57;;;;;;;;;;;;;;;20.91;41.80;101859.00;5118076;27;2650;-58
2022/04/30 05:42:24;;;;;;;;;;;;;;;20.92;41.69;101864.13;5121762;28;2371;-58
2022/04/30 05:44:50;;;;;;;;;;;;;;;20.98;41.61;101860.13;5125959;27;2556;-58
2022/04/30 05:47:18;;;;;;;;;;;;;;;20.96;41.70;101860.00;5123435;27;2642;-58
2022/04/30 05:49:44;;;;;;;;;;;;;;;20.93;41.79;101870.63;5125109;27;2651;-58
2022/04/30 05:52:14;;;;;;;;;;;;;;;20.92;41.67;101872.78;5132533;27;2151;-57
2022/04/30 05:54:40;;;;;;;;;;;;;;;20.92;41.80;101875.66;5126666;27;2671;-58
2022/04/30 05:57:07;;;;;;;;;;;;;;;20.92;41.67;101872.03;5126746;27;2503;-58
2022/04/30 05:59:34;;;;;;;;;;;;;;;20.87;41.78;101870.28;5125581;27;3160;-58
2022/04/30 06:02:00;;;;;;;;;;;;;;;20.87;41.85;101876.78;5123315;27;2561;-58
2022/04/30 06:04:33;;;;;;;;;;;;;;;20.87;41.96;101882.56;5126612;27;2572;-58
2022/04/30 06:06:59;;;;;;;;;;;;;;;20.89;41.82;101876.16;5122316;27;2897;-58
2022/04/30 06:09:25;;;;;;;;;;;;;;;20.88;41.92;101872.53;5129096;27;2663;-58
2022/04/30 06:11:52;;;;;;;;;;;;;;;20.90;41.82;101875.53;5126967;27;2624;-58
2022/04/30 06:14:18;;;;;;;;;;;;;;;20.87;41.96;101876.78;5127796;27;2549;-58
2022/04/30 06:16:45;;;;;;;;;;;;;;;20.90;41.97;101874.78;5122559;27;2588;-58
2022/04/30 06:19:11;;;;;;;;;;;;;;;20.87;41.97;101881.81;5114138;27;3392;-57
2022/04/30 06:21:38;;;;;;;;;;;;;;;20.87;42.03;101876.78;5127438;27;2552;-59
2022/04/30 06:24:05;;;;;;;;;;;;;;;20.88;41.92;101884.03;5120441;27;2475;-59
2022/04/30 06:26:32;;;;;;;;;;;;;;;20.95;41.69;101881.53;5131024;27;2101;-58
2022/04/30 06:28:59;;;;;;;;;;;;;;;20.95;41.75;101875.78;5128650;27;2565;-59
2022/04/30 06:31:25;;;;;;;;;;;;;;;20.93;41.82;101880.03;5119487;27;2607;-58
2022/04/30 06:33:53;;;;;;;;;;;;;;;20.91;41.86;101877.03;5126380;27;2659;-58
2022/04/30 06:36:19;;;;;;;;;;;;;;;20.91;41.92;101870.50;5123186;27;2679;-58
2022/04/30 06:38:45;;;;;;;;;;;;;;;20.91;41.87;101877.03;5119369;27;2681;-58
2022/04/30 06:41:12;;;;;;;;;;;;;;;20.91;41.83;101871.28;5130559;27;3491;-58
2022/04/30 06:43:38;;;;;;;;;;;;;;;20.91;41.95;101877.03;5125744;27;2588;-58
2022/04/30 06:46:06;;;;;;;;;;;;;;;20.91;41.93;101874.16;5115283;27;2837;-58
2022/04/30 06:48:32;;;;;;;;;;;;;;;20.92;41.90;101884.28;5122491;27;3276;-61
2022/04/30 06:50:58;;;;;;;;;;;;;;;20.92;42.13;101869.91;5129689;27;2194;-57
2022/04/30 06:58:59;;;;;;;;;;;;;;;20.78;41.33;101874.81;5122484;27;3623;-59
2022/04/30 07:01:42;;;;;;;;;;;;;;;20.80;42.09;101877.81;5124661;27;2817;-60
2022/04/30 07:04:10;;;;;;;;;;;;;;;20.67;41.21;101887.06;5127151;27;2640;-56
2022/04/30 07:06:37;;;;;;;;;;;;;;;20.26;40.73;101888.13;5124876;27;2487;-56
2022/04/30 07:09:04;;;;;;;;;;;;;;;19.85;40.57;101888.41;5121295;27;2558;-57
2022/04/30 07:11:30;;;;;;;;;;;;;;;20.09;40.45;101894.25;5125950;27;2454;-60
2022/04/30 07:13:57;;;;;;;;;;;;;;;20.21;39.55;101882.75;5115404;27;3430;-62
2022/04/30 07:16:23;;;;;;;;;;;;;;;20.26;39.09;101884.50;5119830;27;2598;-62
2022/04/30 07:18:50;;;;;;;;;;;;;;;20.25;39.07;101878.00;5117532;27;2897;-61
2022/04/30 07:21:16;;;;;;;;;;;;;;;20.27;38.73;101886.00;5120897;27;2631;-65
2022/04/30 07:23:43;;;;;;;;;;;;;;;20.25;38.73;101883.03;5118121;27;2945;-59
2022/04/30 07:26:09;;;;;;;;;;;;;;;20.25;38.58;101877.28;5120962;27;2945;-63
2022/04/30 07:28:36;;;;;;;;;;;;;;;20.21;38.39;101888.50;5118017;27;2281;-64
2022/04/30 07:31:03;;;;;;;;;;;;;;;20.30;38.42;101902.03;5117411;27;2608;-63
2022/04/30 07:33:29;;;;;;;;;;;;;;;20.35;38.52;101889.41;5123106;27;2433;-63
2022/04/30 07:36:00;;;;;;;;;;;;;;;20.41;39.14;101895.53;5125942;27;2780;-64
2022/04/30 07:38:26;;;;;;;;;;;;;;;20.45;39.23;101895.03;5124786;27;2429;-63
2022/04/30 07:40:52;;;;;;;;;;;;;;;20.47;39.32;101892.28;5125421;27;2841;-63
2022/04/30 07:43:19;;;;;;;;;;;;;;;20.51;39.47;101893.28;5122729;27;2362;-63
2022/04/30 07:45:45;;;;;;;;;;;;;;;20.57;39.49;101892.19;5125637;27;2588;-63
2022/04/30 07:48:11;;;;;;;;;;;;;;;20.56;39.65;101896.44;5126232;27;2722;-64
2022/04/30 07:50:38;;;;;;;;;;;;;;;20.57;39.74;101895.84;5126319;27;2807;-63
2022/04/30 07:53:04;;;;;;;;;;;;;;;20.62;39.82;101900.47;5128183;27;2629;-63
2022/04/30 07:55:31;;;;;;;;;;;;;;;20.62;39.94;101891.09;5113980;27;2692;-64
2022/04/30 07:57:58;;;;;;;;;;;;;;;20.61;40.11;101906.84;5120359;27;2672;-63
2022/04/30 08:00:24;;;;;;;;;;;;;;;20.53;39.88;101900.56;5122968;27;2565;-64
2022/04/30 08:02:53;;;;;;;;;;;;;;;20.33;39.46;101900.78;5116323;27;2778;-64
2022/04/30 08:05:20;;;;;;;;;;;;;;;20.27;38.51;101894.63;5112008;27;3336;-63
2022/04/30 08:07:46;;;;;;;;;;;;;;;20.24;37.83;101896.63;5112018;27;3339;-63
2022/04/30 08:10:13;;;;;;;;;;;;;;;20.24;37.82;101908.13;5118787;27;2560;-63
2022/04/30 08:12:39;;;;;;;;;;;;;;;20.14;37.94;101895.25;5108879;27;3411;-64
2022/04/30 08:15:06;;;;;;;;;;;;;;;20.12;37.74;101900.88;5110714;27;2644;-63
2022/04/30 08:17:32;;;;;;;;;;;;;;;20.05;37.67;101905.47;5121102;27;2545;-63
2022/04/30 08:19:58;;;;;;;;;;;;;;;19.99;37.24;101902.94;5121666;27;2596;-63
2022/04/30 08:22:25;;;;;;;;;;;;;;;19.96;37.29;101895.56;5121259;27;2592;-63
2022/04/30 08:24:51;;;;;;;;;;;;;;;19.92;37.54;101909.69;5124404;27;2560;-63
2022/04/30 08:27:18;;;;;;;;;;;;;;;19.88;37.85;101909.41;5122548;27;2691;-62
2022/04/30 08:29:44;;;;;;;;;;;;;;;19.83;38.27;101913.41;5121277;27;2666;-62
2022/04/30 08:32:11;;;;;;;;;;;;;;;19.83;38.39;101913.41;5116862;27;2797;-62
2022/04/30 08:34:37;;;;;;;;;;;;;;;19.79;38.82;101902.41;5123934;27;2522;-63
2022/04/30 08:37:04;;;;;;;;;;;;;;;19.79;38.74;101910.25;5122829;27;2545;-63
2022/04/30 08:39:31;;;;;;;;;;;;;;;19.77;38.76;101904.38;5117761;27;2537;-62
2022/04/30 08:41:58;;;;;;;;;;;;;;;19.77;38.82;101901.50;5125044;27;2555;-63
2022/04/30 08:44:24;;;;;;;;;;;;;;;19.71;38.83;101895.38;5106810;27;2605;-63
2022/04/30 08:46:51;;;;;;;;;;;;;;;19.72;38.98;101896.84;5124520;27;3589;-63
2022/04/30 08:49:17;;;;;;;;;;;;;;;19.72;39.06;101891.84;5117062;27;2815;-63
2022/04/30 08:51:43;;;;;;;;;;;;;;;19.73;38.81;101886.88;5125477;27;2337;-63
2022/04/30 08:54:10;;;;;;;;;;;;;;;19.75;38.85;101893.50;5121455;27;2364;-64
2022/04/30 08:56:36;;;;;;;;;;;;;;;19.75;39.19;101889.91;5122918;27;2627;-63
2022/04/30 08:59:05;;;;;;;;;;;;;;;19.77;39.37;101887.13;5123816;27;2536;-63
2022/04/30 09:01:32;;;;;;;;;;;;;;;19.77;39.35;101892.88;5116726;27;3034;-63
2022/04/30 09:03:58;;;;;;;;;;;;;;;19.75;39.58;101884.88;5121192;27;2745;-62
2022/04/30 09:06:25;;;;;;;;;;;;;;;19.81;39.38;101893.16;5120978;27;2804;-62
2022/04/30 09:08:51;;;;;;;;;;;;;;;19.81;39.27;101887.41;5124887;27;2457;-62
2022/04/30 09:11:25;;;;;;;;;;;;;;;19.91;39.72;101890.94;5122446;27;2643;-63
2022/04/30 09:13:52;;;;;;;;;;;;;;;19.95;40.13;101891.22;5122266;27;2509;-63
2022/04/30 09:16:22;;;;;;;;;;;;;;;19.99;40.16;101879.94;5118808;27;3277;-62
2022/04/30 09:18:49;;;;;;;;;;;;;;;20.02;40.44;101884.47;5120578;27;2524;-63
2022/04/30 09:21:15;;;;;;;;;;;;;;;20.05;40.79;101883.22;5120300;27;2599;-64
2022/04/30 09:23:42;;;;;;;;;;;;;;;19.98;40.11;101894.97;5118340;27;2504;-62
2022/04/30 09:26:08;;;;;;;;;;;;;;;19.98;39.80;101884.22;5126042;27;2355;-61
2022/04/30 09:28:38;;;;;;;;;;;;;;;20.02;39.75;101887.34;5127569;27;1658;-62
2022/04/30 09:31:05;;;;;;;;;;;;;;;20.05;40.29;101882.47;5110534;27;2587;-62
2022/04/30 09:33:31;;;;;;;;;;;;;;;20.10;40.68;101866.97;5124477;27;2453;-62
2022/04/30 09:38:47;;;;;;;;;;;;;;;20.16;40.78;101867.38;5119813;28;2672;-62
2022/04/30 09:41:13;;;;;;;;;;;;;;;20.17;40.76;101871.00;5124521;27;2521;-62
2022/04/30 09:43:40;;;;;;;;;;;;;;;20.21;40.80;101865.50;5126294;28;2519;-62
2022/04/30 09:46:09;;;;;;;;;;;;;;;20.22;40.88;101867.00;5120316;28;2613;-62
2022/04/30 09:54:06;;;;;;;;;;;;;;;20.26;41.02;101870.88;5123700;28;2667;-62
2022/04/30 09:56:36;;;;;;;;;;;;;;;20.30;40.93;101861.75;5124484;28;2631;-62
2022/04/30 09:59:04;;;;;;;;;;;;;;;20.32;40.98;101864.00;5124240;27;2414;-61
2022/04/30 10:01:32;;;;;;;;;;;;;;;20.34;41.06;101856.28;5121685;28;2667;-62
2022/04/30 10:03:58;;;;;;;;;;;;;;;20.34;41.13;101855.50;5116370;28;2560;-62
2022/04/30 10:06:25;;;;;;;;;;;;;;;20.37;41.07;101852.13;5123680;28;2519;-62
2022/04/30 10:08:51;;;;;;;;;;;;;;;20.39;41.10;101854.41;5118223;28;2797;-62
2022/04/30 10:11:26;;;;;;;;;;;;;;;20.39;41.26;101848.66;5103933;28;2901;-62
2022/04/30 10:14:02;;;;;;;;;;;;;;;20.39;41.23;101845.75;5115760;28;3355;-62
2022/04/30 10:16:28;;;;;;;;;;;;;;;20.42;41.34;101839.50;5113115;28;3248;-62
2022/04/30 10:18:57;;;;;;;;;;;;;;;20.43;41.39;101841.00;5106729;28;2408;-62
2022/04/30 10:21:23;;;;;;;;;;;;;;;20.46;41.42;101833.25;5120748;28;2731;-62
2022/04/30 10:23:59;;;;;;;;;;;;;;;20.44;41.53;101839.63;5124182;28;2504;-62
2022/04/30 10:26:25;;;;;;;;;;;;;;;20.44;41.66;101825.25;5123302;28;2653;-62
2022/04/30 10:29:01;;;;;;;;;;;;;;;20.47;41.66;101823.97;5119815;28;2896;-62
2022/04/30 10:31:28;;;;;;;;;;;;;;;20.47;41.74;101829.72;5116542;27;2613;-62
2022/04/30 10:33:54;;;;;;;;;;;;;;;20.50;41.79;101822.75;5107865;27;2648;-62
2022/04/30 10:36:21;;;;;;;;;;;;;;;20.52;41.79;101822.09;5125113;27;2678;-62
2022/04/30 10:38:54;;;;;;;;;;;;;;;20.51;41.89;101824.22;5128493;27;2739;-62
2022/04/30 10:41:20;;;;;;;;;;;;;;;20.55;42.02;101828.72;5127472;27;2919;-61
2022/04/30 10:43:46;;;;;;;;;;;;;;;20.48;42.18;101822.63;5107420;27;2648;-62
2022/04/30 10:46:13;;;;;;;;;;;;;;;20.50;42.16;101817.00;5116613;27;2719;-62
2022/04/30 10:48:39;;;;;;;;;;;;;;;20.51;42.43;101818.47;5122216;27;2591;-62
2022/04/30 10:51:06;;;;;;;;;;;;;;;20.49;42.48;101808.97;5125103;27;2548;-63
2022/04/30 10:53:33;;;;;;;;;;;;;;;20.47;42.23;101803.84;5121995;27;2589;-62
2022/04/30 10:56:00;;;;;;;;;;;;;;;20.46;42.44;101810.97;5125383;27;2612;-62
2022/04/30 10:58:27;;;;;;;;;;;;;;;20.51;42.46;101809.09;5123232;27;2461;-63
2022/04/30 11:00:54;;;;;;;;;;;;;;;20.50;42.45;101796.84;5119555;27;2435;-62
2022/04/30 11:03:27;;;;;;;;;;;;;;;20.51;42.55;101792.59;5126609;27;2135;-62
2022/04/30 11:05:53;;;;;;;;;;;;;;;20.51;42.44;101795.47;5126332;27;2428;-62
2022/04/30 11:08:20;;;;;;;;;;;;;;;20.53;42.46;101799.84;5127258;27;2596;-62
2022/04/30 11:10:50;;;;;;;;;;;;;;;20.56;42.55;101789.97;5127820;27;1918;-62
2022/04/30 11:13:16;;;;;;;;;;;;;;;20.56;42.52;101792.84;5123198;27;2221;-62
2022/04/30 11:15:43;;;;;;;;;;;;;;;20.57;42.64;101791.47;5116812;27;3815;-62
2022/04/30 11:18:09;;;;;;;;;;;;;;;20.58;42.59;101782.22;5108037;27;2642;-63
2022/04/30 11:20:35;;;;;;;;;;;;;;;20.57;42.66;101792.25;5126143;27;2263;-62
2022/04/30 11:23:02;;;;;;;;;;;;;;;20.60;42.71;101778.72;5122383;27;2481;-62
2022/04/30 11:25:32;;;;;;;;;;;;;;;20.61;42.54;101780.94;5125554;27;2637;-62
2022/04/30 11:27:58;;;;;;;;;;;;;;;20.62;42.61;101778.84;5114714;27;2568;-62
2022/04/30 11:30:25;;;;;;;;;;;;;;;20.59;42.76;101780.09;5114010;27;3256;-62
2022/04/30 11:32:51;;;;;;;;;;;;;;;20.61;42.78;101780.22;5115752;27;2568;-62
2022/04/30 11:35:19;;;;;;;;;;;;;;;20.62;42.83;101775.97;5119003;27;3055;-62
2022/04/30 11:37:45;;;;;;;;;;;;;;;20.63;42.73;101771.69;5119357;27;2490;-62
2022/04/30 11:40:12;;;;;;;;;;;;;;;20.64;42.84;101773.97;5120877;27;2447;-62
2022/04/30 11:42:38;;;;;;;;;;;;;;;20.64;42.92;101779.72;5119968;27;2758;-62
2022/04/30 11:45:05;;;;;;;;;;;;;;;20.65;43.15;101774.69;5120821;27;2436;-62
2022/04/30 11:47:31;;;;;;;;;;;;;;;20.65;43.18;101775.44;5124347;27;2652;-62
2022/04/30 11:50:07;;;;;;;;;;;;;;;20.67;43.13;101774.81;5129921;27;1816;-61
2022/04/30 11:52:33;;;;;;;;;;;;;;;20.69;42.90;101763.44;5099869;27;2204;-62
2022/04/30 11:55:00;;;;;;;;;;;;;;;20.67;43.14;101763.31;5120422;27;2651;-62
2022/04/30 11:57:27;;;;;;;;;;;;;;;20.66;43.17;101756.03;5114140;27;2638;-62
2022/04/30 11:59:54;;;;;;;;;;;;;;;20.61;43.29;101752.16;5109960;27;2663;-64
2022/04/30 12:02:25;;;;;;;;;;;;;;;20.67;43.16;101761.19;5123243;27;3138;-61
2022/04/30 12:04:52;;;;;;;;;;;;;;;20.70;42.91;101747.66;5097684;27;3289;-61
2022/04/30 12:07:18;;;;;;;;;;;;;;;20.71;42.74;101749.91;5116304;27;2375;-62
2022/04/30 12:09:46;;;;;;;;;;;;;;;20.73;42.89;101745.66;5110206;27;2620;-61
2022/04/30 12:12:16;;;;;;;;;;;;;;;20.76;43.25;101750.91;5115600;27;2405;-62
2022/04/30 12:14:42;;;;;;;;;;;;;;;20.81;43.26;101746.88;5119994;27;2601;-62
2022/04/30 12:17:09;;;;;;;;;;;;;;;20.78;43.35;101748.16;5106630;27;2714;-63
2022/04/30 12:25:22;;;;;;;;;;;;;;;20.71;43.18;101743.41;5088462;27;2213;-63
2022/04/30 12:27:52;;;;;;;;;;;;;;;20.75;43.28;101737.13;5120864;27;2842;-63
2022/04/30 12:30:49;;;;;;;;;;;;;;;20.74;43.26;101727.75;5117650;27;2593;-64
2022/04/30 12:33:15;;;;;;;;;;;;;;;20.78;43.08;101728.00;5112150;27;2781;-62
2022/04/30 12:35:42;;;;;;;;;;;;;;;20.76;43.09;101730.75;5125773;27;2768;-63
2022/04/30 12:38:12;;;;;;;;;;;;;;;20.77;43.23;101722.88;5118891;27;2670;-63
2022/04/30 12:40:39;;;;;;;;;;;;;;;20.78;43.29;101719.38;5122942;27;2608;-63
2022/04/30 12:43:06;;;;;;;;;;;;;;;20.80;43.34;101725.25;5120162;27;2596;-63
2022/04/30 12:45:34;;;;;;;;;;;;;;;20.81;43.43;101714.47;5124512;27;2516;-62
2022/04/30 12:48:00;;;;;;;;;;;;;;;20.78;43.59;101725.13;5123822;27;2744;-63
2022/04/30 12:50:27;;;;;;;;;;;;;;;20.81;43.60;101718.09;5124382;27;2304;-63
2022/04/30 12:52:53;;;;;;;;;;;;;;;20.81;43.71;101718.09;5123189;27;2715;-63
2022/04/30 12:55:20;;;;;;;;;;;;;;;20.81;43.85;101711.59;5122658;27;2666;-64
2022/04/30 12:57:46;;;;;;;;;;;;;;;20.83;43.87;101703.81;5124840;27;2657;-63
2022/04/30 13:00:16;;;;;;;;;;;;;;;20.85;44.21;101708.94;5116408;27;2635;-63
2022/04/30 13:02:43;;;;;;;;;;;;;;;20.86;44.26;101705.41;5125182;27;2292;-63
2022/04/30 13:05:10;;;;;;;;;;;;;;;20.91;43.77;101710.06;5124837;27;2379;-63
2022/04/30 13:07:36;;;;;;;;;;;;;;;20.90;44.06;101699.91;5119415;27;2494;-63
2022/04/30 13:13:34;;;;;;;;;;;;;;;20.93;44.40;101695.75;5119498;27;2889;-63
2022/04/30 13:15:34;;;;;;;;;;;;;;;20.91;44.58;101704.28;5113324;27;2595;-63
2022/04/30 13:18:02;;;;;;;;;;;;;;;20.94;44.57;101716.69;5122638;27;2316;-63
2022/04/30 13:20:29;;;;;;;;;;;;;;;20.93;44.73;101707.28;5123399;27;2558;-63
2022/04/30 13:22:56;;;;;;;;;;;;;;;20.96;44.82;101704.50;5124173;27;2596;-63
2022/04/30 13:25:23;;;;;;;;;;;;;;;20.91;44.96;101704.28;5125839;27;2621;-63
2022/04/30 13:27:49;;;;;;;;;;;;;;;20.95;44.95;101700.16;5124193;27;2383;-63
2022/04/30 13:30:18;;;;;;;;;;;;;;;20.93;45.11;101686.38;5120878;27;2895;-63
2022/04/30 13:32:44;;;;;;;;;;;;;;;20.92;45.11;101688.50;5125254;27;2067;-63
2022/04/30 13:35:11;;;;;;;;;;;;;;;20.95;45.14;101688.63;5123559;27;2387;-63